Valley Peak, Santa Cruz Island Reserve, California Weather observations

Data are for 10 minute period ending at time listed.
 Day   Time   Solar   Ave.   Ave.  Ave.  Vector  Max.   Baro.   Total    
  of    of     Rad.   Air    Rel.  Wind   Wind   Wind  Press.  Precip.   
Year   Day            Temp.  Hum.  Speed  Dir.   Gust                    
2014   (PST)  Kw/m2    F      %     mph   deg.    mph    mb.     in.     
-------------------------------------------------------------------------
 296   18:40   0.00   70.6    56    1.6   168     1.8   964.5    0.00 
 296   18:50   0.00   70.5    56    1.2   174     1.8   964.6    0.00 
 296   19:00   0.00   70.4    55    0.1   176     0.7   964.6    0.00 
 296   19:10   0.00   69.8    38    0.6   355     2.1   964.5    0.00 
 296   19:20   0.00   72.1    33    2.7     3     3.1   964.5    0.00 
 296   19:30   0.00   72.0    33    2.7    11     3.0   964.6    0.00 
 296   19:40   0.00   71.3    34    2.0    13     2.3   964.7    0.00 
 296   19:50   0.00   71.8    34    2.3    12     3.1   964.7    0.00 
 296   20:00   0.00   71.2    27    3.7    20     4.2   964.9    0.00 
 296   20:10   0.00   71.2    24    4.0    23     4.2   964.9    0.00 
 296   20:20   0.00   71.1    23    3.5    38     3.9   965.0    0.00 
 296   20:30   0.00   70.5    23    1.9    56     2.6   965.1    0.00 
 296   20:40   0.00   70.1    21    2.2    82     2.9   965.2    0.00 
 296   20:50   0.00   70.0    16    2.1   108     2.9   965.2    0.00 
 296   21:00   0.00   70.4    30    2.0   112     2.6   965.2    0.00 
 296   21:10   0.00   69.8    23    1.6    84     2.0   965.3    0.00 
 296   21:20   0.00   69.6    40    1.7    56     2.2   965.4    0.00 
 296   21:30   0.00   70.1    22    1.3    44     1.6   965.5    0.00 
 296   21:40   0.00   69.5    19    1.4    58     1.7   965.6    0.00 
 296   21:50   0.00   69.2    24    1.1    58     1.6   965.6    0.00 
 296   22:00   0.00   69.5    30    1.8   130     2.8   965.7    0.00 
 296   22:10   0.00   69.5    29    1.8   105     2.8   965.7    0.00 
 296   22:20   0.00   68.9    26    2.4   102     3.2   965.8    0.00 
 296   22:30   0.00   68.4    28    2.3    94     2.9   965.9    0.00 
 296   22:40   0.00   68.3    29    3.4   116     4.0   965.9    0.00 
 296   22:50   0.00   68.3    31    3.6   126     3.9   965.9    0.00 
 296   23:00   0.00   68.6    29    4.2   133     5.0   965.9    0.00 
 296   23:10   0.00   68.4    33    5.3   128     5.7   965.9    0.00 
 296   23:20   0.00   68.1    35    5.7   123     6.0   965.9    0.00 
 296   23:30   0.00   67.9    35    5.5   123     6.0   965.9    0.00 
 296   23:40   0.00   67.7    38    5.4   129     6.1   965.9    0.00 
 296   23:50   0.00   67.2    46    5.2   134     5.5   965.9    0.00 
 297    0:00   0.00   66.9    50    5.5   129     6.2   965.9    0.00 
 297    0:10   0.00   67.0    47    6.2   123     6.6   965.9    0.00 
 297    0:20   0.00   67.2    43    6.5   113     7.1   965.9    0.00 
 297    0:30   0.00   66.3    41    6.2   102     7.2   965.9    0.00 
 297    0:40   0.00   65.8    42    6.2    98     7.8   965.8    0.00 
 297    0:50   0.00   65.8    38    6.8    99     8.5   965.7    0.00 
 297    1:00   0.00   65.5    35    7.1   104     8.6   965.7    0.00 
 297    1:10   0.00   65.8    41    7.4   110     8.8   965.7    0.00 
 297    1:20   0.00   66.0    41    8.3   113     9.6   965.6    0.00 
 297    1:30   0.00   66.0    38    7.9   124     9.7   965.6    0.00 
 297    1:40   0.00   65.7    38    8.5   130     9.5   965.6    0.00 
 297    1:50   0.00   65.4    38    8.8   129     9.8   965.5    0.00 
 297    2:00   0.00   65.4    39    9.2   129    10.1   965.5    0.00 
 297    2:10   0.00   65.1    41    8.7   133     9.9   965.4    0.00 
 297    2:20   0.00   64.5    43    8.3   133     9.2   965.3    0.00 
 297    2:30   0.00   64.4    44    8.1   136     9.3   965.2    0.00 
 297    2:40   0.00   63.8    55    7.3   138     8.6   965.2    0.00 
 297    2:50   0.00   63.4    48    6.6   129     7.7   965.2    0.00 
 297    3:00   0.00   63.7    46    6.9   120     7.3   965.1    0.00 
 297    3:10   0.00   63.9    45    5.8   106     6.6   965.2    0.00 
 297    3:20   0.00   63.3    44    5.3   102     5.6   965.2    0.00 
 297    3:30   0.00   63.1    45    4.6    94     5.2   965.2    0.00 
 297    3:40   0.00   63.0    45    4.9   100     6.0   965.2    0.00 
 297    3:50   0.00   63.2    45    4.7   113     5.6   965.3    0.00 
 297    4:00   0.00   63.9    44    5.7   132     6.7   965.4    0.00 
 297    4:10   0.00   63.8    44    6.7   146     7.8   965.4    0.00 
 297    4:20   0.00   63.8    45    6.3   143     7.2   965.4    0.00 
 297    4:30   0.00   63.6    46    5.6   138     6.1   965.4    0.00 
 297    4:40   0.00   63.7    46    4.8   117     5.6   965.4    0.00 
 297    4:50   0.00   63.1    45    4.8   104     5.9   965.4    0.00 
 297    5:00   0.00   63.6    44    5.9   124     6.6   965.5    0.00 
 297    5:10   0.00   63.9    45    6.0   114     6.4   965.4    0.00 
 297    5:20   0.00   63.8    45    6.3   120     6.9   965.5    0.00 
 297    5:30   0.00   63.8    46    7.2   128     8.1   965.5    0.00 
 297    5:40   0.00   63.2    47    7.8   129     8.6   965.5    0.00 
 297    5:50   0.00   62.8    48    7.3   124     8.4   965.6    0.00 
 297    6:00   0.00   62.8    49    7.3   125     8.0   965.7    0.00 
 297    6:10   0.00   62.8    50    6.8   118     7.4   965.7    0.00 
 297    6:20   0.01   62.9    49    6.6   119     7.0   965.8    0.00 
 297    6:30   0.03   63.3    49    6.3   126     7.0   965.9    0.00 
 297    6:40   0.06   63.4    50    5.4   128     6.4   966.0    0.00 
 297    6:50   0.09   63.8    50    4.8   138     6.0   966.1    0.00 
 297    7:00   0.12   64.0    50    4.7   138     6.6   966.2    0.00 
 297    7:10   0.16   64.6    49    5.2   134     6.8   966.3    0.00 
 297    7:20   0.19   65.4    48    4.1   141     5.9   966.3    0.00 
 297    7:30   0.22   66.3    46    4.5   133     6.3   966.4    0.00 
 297    7:40   0.26   67.2    44    3.7   116     6.1   966.5    0.00 
 297    7:50   0.29   68.2    39    4.0   132     6.6   966.5    0.00 
 297    8:00   0.32   69.2    40    3.6   130     6.1   966.6    0.00 
 297    8:10   0.35   70.0    40    4.1   126     7.8   966.4    0.00 
 297    8:20   0.39   71.0    43    4.2   125     7.3   966.4    0.00 
 297    8:30   0.42   71.2    45    3.9   124     7.0   966.3    0.00 
 297    8:40   0.45   72.1    43    3.1   126     6.6   966.2    0.00 
 297    8:50   0.47   72.9    43    3.6   138     7.2   966.3    0.00 
 297    9:00   0.50   73.3    42    4.0   139     7.7   966.3    0.00 
 297    9:10   0.53   73.8    40    4.1   142     7.9   966.3    0.00 
 297    9:20   0.55   74.8    39    4.1   135     9.2   966.3    0.00 
 297    9:30   0.58   74.7    45    4.5   139     8.7   966.4    0.00 
 297    9:40   0.60   74.3    47    5.0   143     9.7   966.4    0.00 
 297    9:50   0.62   74.2    48    4.7   140     9.3   966.4    0.00 
 297   10:00   0.64   74.6    44    5.2   140     8.8   966.5    0.00 
 297   10:10   0.65   75.6    37    5.2   127     9.6   966.5    0.00 
 297   10:20   0.66   76.4    38    4.7   138     9.4   966.4    0.00 
 297   10:30   0.68   77.7    36    4.6   136     9.3   966.4    0.00 
 297   10:40   0.69   77.6    36    4.3   135     8.6   966.5    0.00 
 297   10:50   0.70   77.7    37    4.9   139    10.4   966.5    0.00 
 297   11:00   0.71   78.0    34    5.1   133    10.2   966.4    0.00 
 297   11:10   0.72   79.2    33    5.2   138     9.4   966.5    0.00 
 297   11:20   0.72   79.9    32    4.8   134     8.4   966.4    0.00 
 297   11:30   0.73   79.8    32    4.9   128     8.7   966.3    0.00 
 297   11:40   0.74   79.8    32    4.7   131     9.9   966.3    0.00 
 297   11:50   0.73   80.3    32    4.8   134    10.9   966.2    0.00 
 297   12:00   0.73   81.0    32    5.6   134    10.7   966.1    0.00 
 297   12:10   0.72   81.2    31    5.6   133    10.2   966.0    0.00 
 297   12:20   0.72   81.8    29    5.5   135    11.5   965.9    0.00 
 297   12:30   0.71   82.2    28    5.5   135     9.7   965.8    0.00 
 297   12:40   0.70   82.0    28    5.3   139     9.6   965.7    0.00 
 297   12:50   0.69   81.8    27    5.4   138     9.2   965.6    0.00 
 297   13:00   0.67   81.2    28    5.1   144     9.8   965.5    0.00 
 297   13:10   0.66   81.4    28    4.9   142     8.7   965.5    0.00 
 297   13:20   0.64   80.8    31    5.4   147     8.8   965.4    0.00 
 297   13:30   0.62   79.6    32    5.2   148    10.5   965.3    0.00 
 297   13:40   0.60   80.5    32    5.1   151     9.9   965.1    0.00 
 297   13:50   0.58   80.1    33    5.0   153     9.1   965.1    0.00 
 297   14:00   0.56   80.1    29    5.5   159    10.2   965.1    0.00 
 297   14:10   0.53   79.2    28    5.5   158    10.0   965.1    0.00 
 297   14:20   0.51   79.3    26    4.0   151     8.1   965.1    0.00 
 297   14:30   0.48   81.2    24    4.1   141     9.0   965.0    0.00 
 297   14:40   0.45   82.0    24    4.2   138     8.0   965.0    0.00 
 297   14:50   0.42   82.2    23    4.3   143     8.6   965.1    0.00 
 297   15:00   0.39   81.9    21    4.3   145     7.7   965.1    0.00 
 297   15:10   0.36   82.7    21    3.6   155     7.5   965.1    0.00 
 297   15:20   0.33   80.7    24    4.3   162     7.6   965.1    0.00 
 297   15:30   0.30   79.1    26    4.4   167     7.8   965.0    0.00 
 297   15:40   0.26   78.0    28    4.2   178     6.5   964.8    0.00 
 297   15:50   0.23   77.8    29    4.8   187     7.6   964.7    0.00 
 297   16:00   0.20   76.7    28    5.1   177     7.5   964.6    0.00 
 297   16:10   0.17   75.6    31    5.2   182     7.1   964.6    0.00 
 297   16:20   0.14   74.2    41    5.1   183     6.9   964.5    0.00 
 297   16:30   0.10   73.7    42    5.1   185     7.2   964.4    0.00 
 297   16:40   0.07   72.3    43    5.2   184     7.2   964.3    0.00 
 297   16:50   0.04   71.9    32    5.6   181     7.6   964.2    0.00 
 297   17:00   0.02   72.1    28    5.1   196     6.7   964.1    0.00 
 297   17:10   0.00   71.8    29    3.9   204     5.3   964.2    0.00 
 297   17:20   0.00   69.9    29    2.9   195     4.3   964.3    0.00 
 297   17:30   0.00   68.4    32    3.6   197     5.3   964.5    0.00 
 297   17:40   0.00   67.9    37    3.8   204     5.1   964.7    0.00 
 297   17:50   0.00   67.5    34    4.4   199     5.2   964.8    0.00 
 297   18:00   0.00   67.8    33    4.0   195     5.0   964.9    0.00 
 297   18:10   0.00   67.4    35    3.2   200     4.1   965.1    0.00 
 297   18:20   0.00   66.9    36    1.8   239     2.5   965.2    0.00 
 297   18:30   0.00   67.0    35    1.2   280     1.9   965.3    0.00 

Return to Valley Peak, Santa Cruz Island Reserve graphs page.


Western Regional Climate Center,wrcc@dri.edu